sensor_id;sensor_type;location;lat;lon;timestamp;pressure;altitude;pressure_sealevel;temperature;humidity
56042;BME280;48756;41.374;2.066;2022-12-07T00:01:04;100938.13;;;9.98;100.00
56042;BME280;48756;41.374;2.066;2022-12-07T00:03:30;100944.19;;;10.02;100.00
56042;BME280;48756;41.374;2.066;2022-12-07T00:05:58;100945.00;;;10.10;100.00
56042;BME280;48756;41.374;2.066;2022-12-07T00:08:24;100941.50;;;10.20;100.00
56042;BME280;48756;41.374;2.066;2022-12-07T00:10:49;100934.50;;;10.34;99.83
56042;BME280;48756;41.374;2.066;2022-12-07T00:13:15;100943.22;;;10.29;99.47
56042;BME280;48756;41.374;2.066;2022-12-07T00:15:40;100939.69;;;10.36;99.74
56042;BME280;48756;41.374;2.066;2022-12-07T00:18:05;100934.47;;;10.39;99.28
56042;BME280;48756;41.374;2.066;2022-12-07T00:20:31;100934.47;;;10.37;99.44
56042;BME280;48756;41.374;2.066;2022-12-07T00:22:56;100929.25;;;10.43;98.60
56042;BME280;48756;41.374;2.066;2022-12-07T00:25:21;100928.34;;;10.52;99.01
56042;BME280;48756;41.374;2.066;2022-12-07T00:27:47;100926.56;;;10.56;97.85
56042;BME280;48756;41.374;2.066;2022-12-07T00:30:12;100916.09;;;10.62;97.60
56042;BME280;48756;41.374;2.066;2022-12-07T00:32:37;100915.22;;;10.66;96.34
56042;BME280;48756;41.374;2.066;2022-12-07T00:35:03;100914.44;;;10.53;96.41
56042;BME280;48756;41.374;2.066;2022-12-07T00:37:28;100911.00;;;10.48;97.09
56042;BME280;48756;41.374;2.066;2022-12-07T00:39:54;100915.31;;;10.51;96.43
56042;BME280;48756;41.374;2.066;2022-12-07T00:42:19;100907.47;;;10.54;95.62
56042;BME280;48756;41.374;2.066;2022-12-07T00:44:44;100903.06;;;10.63;96.15
56042;BME280;48756;41.374;2.066;2022-12-07T00:47:10;100897.88;;;10.60;95.63
56042;BME280;48756;41.374;2.066;2022-12-07T00:49:35;100893.53;;;10.59;96.43
56042;BME280;48756;41.374;2.066;2022-12-07T00:52:01;100890.94;;;10.59;96.32
56042;BME280;48756;41.374;2.066;2022-12-07T00:54:26;100895.25;;;10.60;95.89
56042;BME280;48756;41.374;2.066;2022-12-07T00:56:51;100884.84;;;10.60;95.03
56042;BME280;48756;41.374;2.066;2022-12-07T00:59:17;100894.44;;;10.55;95.16
56042;BME280;48756;41.374;2.066;2022-12-07T01:01:42;100884.94;;;10.48;95.88
56042;BME280;48756;41.374;2.066;2022-12-07T01:04:07;100883.19;;;10.49;95.49
56042;BME280;48756;41.374;2.066;2022-12-07T01:06:33;100886.66;;;10.52;95.83
56042;BME280;48756;41.374;2.066;2022-12-07T01:08:59;100891.00;;;10.50;95.88
56042;BME280;48756;41.374;2.066;2022-12-07T01:11:26;100893.75;;;10.29;95.64
56042;BME280;48756;41.374;2.066;2022-12-07T01:13:53;100906.00;;;10.04;94.61
56042;BME280;48756;41.374;2.066;2022-12-07T01:16:19;100893.88;;;9.97;95.00
56042;BME280;48756;41.374;2.066;2022-12-07T01:18:46;100892.16;;;9.96;95.13
56042;BME280;48756;41.374;2.066;2022-12-07T01:21:13;100890.41;;;9.99;94.27
56042;BME280;48756;41.374;2.066;2022-12-07T01:23:39;100892.16;;;9.91;94.69
56042;BME280;48756;41.374;2.066;2022-12-07T01:26:06;100887.72;;;10.11;96.57
56042;BME280;48756;41.374;2.066;2022-12-07T01:28:32;100883.31;;;10.18;95.99
56042;BME280;48756;41.374;2.066;2022-12-07T01:31:02;100879.00;;;10.28;96.98
56042;BME280;48756;41.374;2.066;2022-12-07T01:33:28;100873.72;;;10.35;96.06
56042;BME280;48756;41.374;2.066;2022-12-07T01:35:54;100871.09;;;10.41;95.22
56042;BME280;48756;41.374;2.066;2022-12-07T01:38:20;100874.47;;;10.54;93.88
56042;BME280;48756;41.374;2.066;2022-12-07T01:40:45;100872.72;;;10.55;93.92
56042;BME280;48756;41.374;2.066;2022-12-07T01:43:17;100875.31;;;10.56;94.57
56042;BME280;48756;41.374;2.066;2022-12-07T01:45:44;100881.41;;;10.57;94.03
56042;BME280;48756;41.374;2.066;2022-12-07T01:48:09;100883.13;;;10.59;94.41
56042;BME280;48756;41.374;2.066;2022-12-07T01:50:36;100882.25;;;10.57;94.47
56042;BME280;48756;41.374;2.066;2022-12-07T01:53:03;100883.19;;;10.52;94.86
56042;BME280;48756;41.374;2.066;2022-12-07T01:55:30;100885.78;;;10.53;94.53
56042;BME280;48756;41.374;2.066;2022-12-07T01:57:55;100884.88;;;10.56;95.02
56042;BME280;48756;41.374;2.066;2022-12-07T02:00:22;100877.91;;;10.58;95.32
56042;BME280;48756;41.374;2.066;2022-12-07T02:02:48;100879.63;;;10.62;94.61
56042;BME280;48756;41.374;2.066;2022-12-07T02:05:16;100877.03;;;10.59;95.27
56042;BME280;48756;41.374;2.066;2022-12-07T02:07:42;100884.66;;;10.83;94.65
56042;BME280;48756;41.374;2.066;2022-12-07T02:10:14;100885.53;;;10.87;94.44
56042;BME280;48756;41.374;2.066;2022-12-07T02:12:40;100889.91;;;10.82;93.58
56042;BME280;48756;41.374;2.066;2022-12-07T02:15:06;100889.03;;;10.80;93.54
56042;BME280;48756;41.374;2.066;2022-12-07T02:17:34;100885.72;;;10.59;92.85
56042;BME280;48756;41.374;2.066;2022-12-07T02:30:10;100918.09;;;10.11;93.21
56042;BME280;48756;41.374;2.066;2022-12-07T02:32:42;100913.81;;;9.99;92.94
56042;BME280;48756;41.374;2.066;2022-12-07T02:40:15;100916.44;;;9.93;93.30
56042;BME280;48756;41.374;2.066;2022-12-07T02:42:44;100913.81;;;10.02;93.69
56042;BME280;48756;41.374;2.066;2022-12-07T02:45:12;100913.81;;;10.02;93.11
56042;BME280;48756;41.374;2.066;2022-12-07T02:47:39;100916.44;;;9.96;94.06
56042;BME280;48756;41.374;2.066;2022-12-07T02:50:05;100906.00;;;9.93;94.79
56042;BME280;48756;41.374;2.066;2022-12-07T02:52:31;100899.91;;;10.03;95.36
56042;BME280;48756;41.374;2.066;2022-12-07T02:54:56;100892.16;;;9.97;95.58
56042;BME280;48756;41.374;2.066;2022-12-07T03:00:07;100892.13;;;10.02;96.42
56042;BME280;48756;41.374;2.066;2022-12-07T03:05:06;100887.88;;;9.76;96.41
56042;BME280;48756;41.374;2.066;2022-12-07T03:07:50;100883.56;;;9.69;96.34
56042;BME280;48756;41.374;2.066;2022-12-07T03:18:32;100888.88;;;9.31;97.07
56042;BME280;48756;41.374;2.066;2022-12-07T03:21:01;100901.88;;;9.33;98.84
56042;BME280;48756;41.374;2.066;2022-12-07T03:23:27;100901.00;;;9.35;98.82
56042;BME280;48756;41.374;2.066;2022-12-07T03:25:56;100900.97;;;9.55;98.70
56042;BME280;48756;41.374;2.066;2022-12-07T03:28:22;100891.41;;;9.48;97.79
56042;BME280;48756;41.374;2.066;2022-12-07T03:31:03;100883.63;;;9.56;98.59
56042;BME280;48756;41.374;2.066;2022-12-07T03:33:40;100888.81;;;9.60;97.77
56042;BME280;48756;41.374;2.066;2022-12-07T03:36:09;100881.81;;;9.79;99.67
56042;BME280;48756;41.374;2.066;2022-12-07T03:41:32;100879.91;;;10.13;98.27
56042;BME280;48756;41.374;2.066;2022-12-07T03:43:59;100861.59;;;10.31;97.28
56042;BME280;48756;41.374;2.066;2022-12-07T03:46:27;100871.16;;;10.29;96.25
56042;BME280;48756;41.374;2.066;2022-12-07T03:51:45;100864.13;;;10.43;96.87
56042;BME280;48756;41.374;2.066;2022-12-07T03:54:23;100852.81;;;10.49;95.88
56042;BME280;48756;41.374;2.066;2022-12-07T03:56:49;100865.00;;;10.44;95.53
56042;BME280;48756;41.374;2.066;2022-12-07T03:59:15;100857.09;;;10.55;94.49
56042;BME280;48756;41.374;2.066;2022-12-07T04:01:41;100854.59;;;10.44;94.28
56042;BME280;48756;41.374;2.066;2022-12-07T04:04:07;100845.91;;;10.37;94.87
56042;BME280;48756;41.374;2.066;2022-12-07T04:06:32;100845.88;;;10.47;94.51
56042;BME280;48756;41.374;2.066;2022-12-07T04:08:58;100841.53;;;10.46;94.41
56042;BME280;48756;41.374;2.066;2022-12-07T04:11:23;100849.38;;;10.44;95.44
56042;BME280;48756;41.374;2.066;2022-12-07T04:13:48;100844.00;;;10.62;93.89
56042;BME280;48756;41.374;2.066;2022-12-07T04:16:32;100842.34;;;10.54;94.14
56042;BME280;48756;41.374;2.066;2022-12-07T04:18:58;100847.56;;;10.54;94.21
56042;BME280;48756;41.374;2.066;2022-12-07T04:21:23;100849.38;;;10.44;95.06
56042;BME280;48756;41.374;2.066;2022-12-07T04:23:49;100845.91;;;10.43;94.84
56042;BME280;48756;41.374;2.066;2022-12-07T04:26:14;100849.41;;;10.35;94.50
56042;BME280;48756;41.374;2.066;2022-12-07T04:28:39;100844.25;;;10.30;93.95
56042;BME280;48756;41.374;2.066;2022-12-07T04:31:05;100839.88;;;10.32;93.58
56042;BME280;48756;41.374;2.066;2022-12-07T04:33:30;100847.75;;;10.16;93.38
56042;BME280;48756;41.374;2.066;2022-12-07T04:35:56;100841.69;;;10.24;93.76
56042;BME280;48756;41.374;2.066;2022-12-07T04:38:21;100840.03;;;10.06;93.72
56042;BME280;48756;41.374;2.066;2022-12-07T04:40:46;100836.59;;;10.00;92.81
56042;BME280;48756;41.374;2.066;2022-12-07T04:43:14;100834.00;;;9.97;93.08
56042;BME280;48756;41.374;2.066;2022-12-07T04:45:44;100840.16;;;9.80;92.07
56042;BME280;48756;41.374;2.066;2022-12-07T04:48:10;100836.66;;;9.86;91.06
56042;BME280;48756;41.374;2.066;2022-12-07T04:50:35;100830.59;;;9.84;91.25
56042;BME280;48756;41.374;2.066;2022-12-07T04:53:03;100828.84;;;9.85;92.54
56042;BME280;48756;41.374;2.066;2022-12-07T04:55:28;100845.34;;;9.80;91.38
56042;BME280;48756;41.374;2.066;2022-12-07T04:57:56;100841.03;;;9.81;92.16
56042;BME280;48756;41.374;2.066;2022-12-07T05:00:22;100847.94;;;9.87;91.98
56042;BME280;48756;41.374;2.066;2022-12-07T05:02:47;100863.56;;;9.83;91.68
56042;BME280;48756;41.374;2.066;2022-12-07T05:05:12;100873.16;;;9.75;93.15
56042;BME280;48756;41.374;2.066;2022-12-07T05:07:38;100886.13;;;9.80;93.64
56042;BME280;48756;41.374;2.066;2022-12-07T05:10:04;100890.53;;;9.60;94.12
56042;BME280;48756;41.374;2.066;2022-12-07T05:12:30;100894.03;;;9.48;94.01
56042;BME280;48756;41.374;2.066;2022-12-07T05:14:55;100892.34;;;9.29;94.69
56042;BME280;48756;41.374;2.066;2022-12-07T05:17:20;100896.72;;;9.07;94.69
56042;BME280;48756;41.374;2.066;2022-12-07T05:19:45;100895.84;;;9.06;94.36
56042;BME280;48756;41.374;2.066;2022-12-07T05:22:11;100904.50;;;8.96;94.37
56042;BME280;48756;41.374;2.066;2022-12-07T05:24:36;100895.84;;;8.93;93.31
56042;BME280;48756;41.374;2.066;2022-12-07T05:27:02;100901.03;;;8.76;95.02
56042;BME280;48756;41.374;2.066;2022-12-07T05:29:27;100911.41;;;8.79;94.31
56042;BME280;48756;41.374;2.066;2022-12-07T05:31:52;100895.84;;;8.94;94.94
56042;BME280;48756;41.374;2.066;2022-12-07T05:34:18;100900.16;;;9.15;94.75
56042;BME280;48756;41.374;2.066;2022-12-07T05:36:43;100902.72;;;9.26;93.69
56042;BME280;48756;41.374;2.066;2022-12-07T05:39:11;100902.72;;;9.24;94.30
56042;BME280;48756;41.374;2.066;2022-12-07T05:41:37;100900.16;;;9.32;93.53
56042;BME280;48756;41.374;2.066;2022-12-07T05:44:20;100901.00;;;9.31;94.62
56042;BME280;48756;41.374;2.066;2022-12-07T05:46:46;100905.31;;;9.27;95.62
56042;BME280;48756;41.374;2.066;2022-12-07T05:49:11;100901.91;;;9.13;95.72
56042;BME280;48756;41.374;2.066;2022-12-07T05:51:37;100901.91;;;9.11;96.04
56042;BME280;48756;41.374;2.066;2022-12-07T05:54:02;100906.25;;;9.09;96.52
56042;BME280;48756;41.374;2.066;2022-12-07T05:56:28;100900.19;;;9.07;95.96
56042;BME280;48756;41.374;2.066;2022-12-07T05:58:53;100898.44;;;9.14;96.01
56042;BME280;48756;41.374;2.066;2022-12-07T06:01:37;100890.63;;;9.02;96.85
56042;BME280;48756;41.374;2.066;2022-12-07T06:04:02;100892.38;;;8.98;96.78
56042;BME280;48756;41.374;2.066;2022-12-07T06:06:28;100888.03;;;8.96;96.48
56042;BME280;48756;41.374;2.066;2022-12-07T06:08:53;100891.50;;;9.13;96.53
56042;BME280;48756;41.374;2.066;2022-12-07T06:11:18;100894.09;;;9.11;95.37
56042;BME280;48756;41.374;2.066;2022-12-07T06:14:02;100893.22;;;9.11;95.51
56042;BME280;48756;41.374;2.066;2022-12-07T06:16:27;100891.50;;;8.95;97.17
56042;BME280;48756;41.374;2.066;2022-12-07T06:18:53;100889.75;;;9.00;97.50
56042;BME280;48756;41.374;2.066;2022-12-07T06:21:18;100888.03;;;9.11;97.62
56042;BME280;48756;41.374;2.066;2022-12-07T06:23:44;100897.53;;;9.26;96.64
56042;BME280;48756;41.374;2.066;2022-12-07T06:26:09;100888.84;;;9.37;97.29
56042;BME280;48756;41.374;2.066;2022-12-07T06:28:34;100892.34;;;9.35;98.29
56042;BME280;48756;41.374;2.066;2022-12-07T06:31:00;100883.63;;;9.54;96.56
56042;BME280;48756;41.374;2.066;2022-12-07T06:33:26;100887.03;;;9.65;96.72
56042;BME280;48756;41.374;2.066;2022-12-07T06:35:51;100888.78;;;9.66;96.78
56042;BME280;48756;41.374;2.066;2022-12-07T06:38:17;100887.00;;;9.71;96.02
56042;BME280;48756;41.374;2.066;2022-12-07T06:40:42;100886.16;;;9.75;95.63
56042;BME280;48756;41.374;2.066;2022-12-07T06:43:08;100890.50;;;9.67;97.69
56042;BME280;48756;41.374;2.066;2022-12-07T06:45:33;100888.75;;;9.71;97.25
56042;BME280;48756;41.374;2.066;2022-12-07T06:47:58;100894.81;;;9.76;96.48
56042;BME280;48756;41.374;2.066;2022-12-07T06:50:24;100888.69;;;9.88;96.87
56042;BME280;48756;41.374;2.066;2022-12-07T06:52:50;100888.72;;;9.81;95.51
56042;BME280;48756;41.374;2.066;2022-12-07T06:55:15;100893.88;;;9.94;94.61
56042;BME280;48756;41.374;2.066;2022-12-07T06:57:41;100887.81;;;9.89;95.68
56042;BME280;48756;41.374;2.066;2022-12-07T07:00:06;100883.50;;;9.86;96.33
56042;BME280;48756;41.374;2.066;2022-12-07T07:02:32;100879.22;;;9.77;95.92
56042;BME280;48756;41.374;2.066;2022-12-07T07:04:57;100885.31;;;9.73;96.00
56042;BME280;48756;41.374;2.066;2022-12-07T07:07:23;100873.13;;;9.78;96.38
56042;BME280;48756;41.374;2.066;2022-12-07T07:09:48;100878.34;;;9.75;96.42
56042;BME280;48756;41.374;2.066;2022-12-07T07:12:13;100872.28;;;9.70;96.81
56042;BME280;48756;41.374;2.066;2022-12-07T07:14:39;100871.41;;;9.71;97.81
56042;BME280;48756;41.374;2.066;2022-12-07T07:17:04;100873.13;;;9.77;96.96
56042;BME280;48756;41.374;2.066;2022-12-07T07:19:30;100868.81;;;9.76;97.50
56042;BME280;48756;41.374;2.066;2022-12-07T07:21:55;100879.16;;;9.85;96.53
56042;BME280;48756;41.374;2.066;2022-12-07T07:24:21;100876.59;;;9.77;97.17
56042;BME280;48756;41.374;2.066;2022-12-07T07:26:49;100886.09;;;9.86;97.38
56042;BME280;48756;41.374;2.066;2022-12-07T07:29:16;100871.31;;;9.96;96.43
56042;BME280;48756;41.374;2.066;2022-12-07T07:31:41;100873.84;;;10.09;95.76
56042;BME280;48756;41.374;2.066;2022-12-07T07:34:07;100886.00;;;10.09;95.67
56042;BME280;48756;41.374;2.066;2022-12-07T07:36:32;100892.03;;;10.20;95.87
56042;BME280;48756;41.374;2.066;2022-12-07T07:38:57;100896.38;;;10.13;95.02
56042;BME280;48756;41.374;2.066;2022-12-07T07:41:23;100896.38;;;10.13;95.04
56042;BME280;48756;41.374;2.066;2022-12-07T07:43:48;100897.28;;;10.09;95.21
56042;BME280;48756;41.374;2.066;2022-12-07T07:46:14;100906.84;;;10.06;94.90
56042;BME280;48756;41.374;2.066;2022-12-07T07:48:39;100899.00;;;10.23;94.58
56042;BME280;48756;41.374;2.066;2022-12-07T07:51:05;100898.09;;;10.25;94.63
56042;BME280;48756;41.374;2.066;2022-12-07T07:53:31;100891.19;;;10.12;94.54
56042;BME280;48756;41.374;2.066;2022-12-07T07:55:57;100892.03;;;10.23;94.39
56042;BME280;48756;41.374;2.066;2022-12-07T07:58:22;100890.28;;;10.28;93.61
56042;BME280;48756;41.374;2.066;2022-12-07T08:00:47;100878.81;;;10.54;92.57
56042;BME280;48756;41.374;2.066;2022-12-07T08:03:13;100881.44;;;10.52;91.84
56042;BME280;48756;41.374;2.066;2022-12-07T08:05:38;100879.75;;;10.47;91.86
56042;BME280;48756;41.374;2.066;2022-12-07T08:08:04;100877.03;;;10.57;92.11
56042;BME280;48756;41.374;2.066;2022-12-07T08:10:29;100877.97;;;10.52;91.21
56042;BME280;48756;41.374;2.066;2022-12-07T08:12:57;100877.97;;;10.52;91.52
56042;BME280;48756;41.374;2.066;2022-12-07T08:15:47;100878.81;;;10.54;91.18
56042;BME280;48756;41.374;2.066;2022-12-07T08:18:13;100885.81;;;10.46;90.48
56042;BME280;48756;41.374;2.066;2022-12-07T08:20:39;100890.19;;;10.40;90.05
56042;BME280;48756;41.374;2.066;2022-12-07T08:23:06;100888.50;;;10.33;90.64
56042;BME280;48756;41.374;2.066;2022-12-07T08:25:32;100892.88;;;10.28;90.49
56042;BME280;48756;41.374;2.066;2022-12-07T08:27:57;100894.63;;;10.17;91.28
56042;BME280;48756;41.374;2.066;2022-12-07T08:30:22;100890.25;;;10.31;90.42
56042;BME280;48756;41.374;2.066;2022-12-07T08:32:48;100890.25;;;10.31;90.01
56042;BME280;48756;41.374;2.066;2022-12-07T08:35:14;100889.28;;;10.48;89.95
56042;BME280;48756;41.374;2.066;2022-12-07T08:37:39;100882.34;;;10.48;89.98
56042;BME280;48756;41.374;2.066;2022-12-07T08:40:06;100890.06;;;10.57;89.08
56042;BME280;48756;41.374;2.066;2022-12-07T08:42:32;100892.59;;;10.69;89.77
56042;BME280;48756;41.374;2.066;2022-12-07T08:45:08;100893.41;;;10.78;88.10
56042;BME280;48756;41.374;2.066;2022-12-07T08:47:35;100897.72;;;10.82;88.02
56042;BME280;48756;41.374;2.066;2022-12-07T08:50:02;100901.13;;;10.91;87.86
56042;BME280;48756;41.374;2.066;2022-12-07T08:52:29;100902.03;;;10.86;87.48
56042;BME280;48756;41.374;2.066;2022-12-07T08:54:55;100902.09;;;10.78;87.75
56042;BME280;48756;41.374;2.066;2022-12-07T08:57:21;100899.31;;;10.98;87.34
56042;BME280;48756;41.374;2.066;2022-12-07T08:59:46;100902.75;;;11.04;86.71
56042;BME280;48756;41.374;2.066;2022-12-07T09:02:12;100896.53;;;11.18;86.34
56042;BME280;48756;41.374;2.066;2022-12-07T09:04:40;100900.91;;;11.16;85.57
56042;BME280;48756;41.374;2.066;2022-12-07T09:07:05;100904.38;;;11.16;86.24
56042;BME280;48756;41.374;2.066;2022-12-07T09:09:31;100905.16;;;11.26;85.27
56042;BME280;48756;41.374;2.066;2022-12-07T09:11:56;100911.16;;;11.35;85.28
56042;BME280;48756;41.374;2.066;2022-12-07T09:14:22;100915.31;;;11.55;84.86
56042;BME280;48756;41.374;2.066;2022-12-07T09:16:47;100912.72;;;11.52;83.94
56042;BME280;48756;41.374;2.066;2022-12-07T09:19:13;100912.09;;;11.27;85.49
56042;BME280;48756;41.374;2.066;2022-12-07T09:21:38;100919.09;;;11.22;85.88
56042;BME280;48756;41.374;2.066;2022-12-07T09:24:03;100913.84;;;11.25;85.18
56042;BME280;48756;41.374;2.066;2022-12-07T09:26:29;100919.00;;;11.31;85.31
56042;BME280;48756;41.374;2.066;2022-12-07T09:28:54;100921.50;;;11.43;83.98
56042;BME280;48756;41.374;2.066;2022-12-07T09:31:20;100920.00;;;11.21;85.07
56042;BME280;48756;41.374;2.066;2022-12-07T09:33:45;100917.22;;;11.39;84.26
56042;BME280;48756;41.374;2.066;2022-12-07T09:36:10;100922.50;;;11.33;84.35
56042;BME280;48756;41.374;2.066;2022-12-07T09:38:42;100921.50;;;11.45;83.74
56042;BME280;48756;41.374;2.066;2022-12-07T09:41:07;100924.06;;;11.48;83.82
56042;BME280;48756;41.374;2.066;2022-12-07T09:43:33;100923.91;;;11.64;84.17
56042;BME280;48756;41.374;2.066;2022-12-07T09:46:00;100926.34;;;11.83;82.13
56042;BME280;48756;41.374;2.066;2022-12-07T09:48:35;100928.97;;;11.77;82.72
56042;BME280;48756;41.374;2.066;2022-12-07T09:51:02;100929.63;;;12.02;82.69
56042;BME280;48756;41.374;2.066;2022-12-07T09:53:36;100930.47;;;12.02;82.16
56042;BME280;48756;41.374;2.066;2022-12-07T09:56:02;100927.25;;;11.80;81.58
56042;BME280;48756;41.374;2.066;2022-12-07T09:58:28;100925.97;;;12.13;80.47
56042;BME280;48756;41.374;2.066;2022-12-07T10:01:05;100932.13;;;12.09;80.92
56042;BME280;48756;41.374;2.066;2022-12-07T10:03:36;100937.13;;;12.27;81.46
56042;BME280;48756;41.374;2.066;2022-12-07T10:06:03;100934.69;;;12.12;81.61
56042;BME280;48756;41.374;2.066;2022-12-07T10:08:29;100939.47;;;12.47;80.46
56042;BME280;48756;41.374;2.066;2022-12-07T10:10:55;100940.91;;;12.67;79.02
56042;BME280;48756;41.374;2.066;2022-12-07T10:18:51;100941.59;;;12.16;80.53
56042;BME280;48756;41.374;2.066;2022-12-07T10:21:18;100927.41;;;12.36;80.25
56042;BME280;48756;41.374;2.066;2022-12-07T10:24:05;100928.44;;;12.25;78.93
56042;BME280;48756;41.374;2.066;2022-12-07T10:28:58;100926.03;;;12.09;79.47
56042;BME280;48756;41.374;2.066;2022-12-07T10:31:24;100913.09;;;12.63;78.07
56042;BME280;48756;41.374;2.066;2022-12-07T10:33:51;100917.66;;;12.48;77.33
56042;BME280;48756;41.374;2.066;2022-12-07T10:36:18;100917.81;;;12.38;77.42
56042;BME280;48756;41.374;2.066;2022-12-07T10:38:47;100904.31;;;12.65;77.66
56042;BME280;48756;41.374;2.066;2022-12-07T10:41:13;100911.50;;;12.52;78.15
56042;BME280;48756;41.374;2.066;2022-12-07T10:43:46;100905.38;;;12.55;77.77
56042;BME280;48756;41.374;2.066;2022-12-07T10:46:20;100899.16;;;12.61;77.78
56042;BME280;48756;41.374;2.066;2022-12-07T10:48:59;100901.75;;;12.62;77.72
56042;BME280;48756;41.374;2.066;2022-12-07T10:56:42;100879.94;;;13.20;75.85
56042;BME280;48756;41.374;2.066;2022-12-07T11:04:29;100859.94;;;14.04;72.29
56042;BME280;48756;41.374;2.066;2022-12-07T11:07:19;100851.56;;;13.87;70.92
56042;BME280;48756;41.374;2.066;2022-12-07T11:14:53;100837.75;;;14.19;68.56
56042;BME280;48756;41.374;2.066;2022-12-07T11:17:32;100838.94;;;14.05;69.07
56042;BME280;48756;41.374;2.066;2022-12-07T11:27:49;100816.66;;;13.86;69.09
56042;BME280;48756;41.374;2.066;2022-12-07T11:30:33;100808.91;;;13.80;69.26
56042;BME280;48756;41.374;2.066;2022-12-07T11:33:11;100812.78;;;14.02;69.15
56042;BME280;48756;41.374;2.066;2022-12-07T11:38:16;100807.50;;;14.05;68.16
56042;BME280;48756;41.374;2.066;2022-12-07T11:40:46;100798.00;;;14.00;68.95
56042;BME280;48756;41.374;2.066;2022-12-07T11:43:26;100801.78;;;14.27;68.24
56042;BME280;48756;41.374;2.066;2022-12-07T11:46:03;100799.91;;;14.32;67.45
56042;BME280;48756;41.374;2.066;2022-12-07T11:48:33;100789.84;;;14.52;67.05
56042;BME280;48756;41.374;2.066;2022-12-07T11:51:00;100785.97;;;14.65;66.16
56042;BME280;48756;41.374;2.066;2022-12-07T11:53:27;100793.78;;;15.02;65.39
56042;BME280;48756;41.374;2.066;2022-12-07T11:55:57;100788.03;;;14.54;66.39
56042;BME280;48756;41.374;2.066;2022-12-07T12:03:52;100781.56;;;14.67;67.13
56042;BME280;48756;41.374;2.066;2022-12-07T12:06:19;100774.50;;;14.69;66.37
56042;BME280;48756;41.374;2.066;2022-12-07T12:08:55;100774.94;;;14.87;66.63
56042;BME280;48756;41.374;2.066;2022-12-07T12:19:11;100761.81;;;14.87;65.74
56042;BME280;48756;41.374;2.066;2022-12-07T12:21:42;100757.06;;;14.68;67.31
56042;BME280;48756;41.374;2.066;2022-12-07T12:24:17;100754.25;;;14.76;66.73
56042;BME280;48756;41.374;2.066;2022-12-07T12:26:59;100748.69;;;14.87;66.28
56042;BME280;48756;41.374;2.066;2022-12-07T12:29:36;100746.47;;;14.73;66.87
56042;BME280;48756;41.374;2.066;2022-12-07T12:34:32;100740.00;;;14.85;67.79
56042;BME280;48756;41.374;2.066;2022-12-07T12:36:59;100730.91;;;14.98;66.14
56042;BME280;48756;41.374;2.066;2022-12-07T12:39:24;100731.00;;;14.62;67.11
56042;BME280;48756;41.374;2.066;2022-12-07T12:41:51;100731.72;;;14.67;66.54
56042;BME280;48756;41.374;2.066;2022-12-07T12:46:47;100718.00;;;14.90;67.01
56042;BME280;48756;41.374;2.066;2022-12-07T12:51:42;100699.97;;;15.09;66.25
56042;BME280;48756;41.374;2.066;2022-12-07T12:56:58;100694.19;;;15.27;64.75
56042;BME280;48756;41.374;2.066;2022-12-07T12:59:28;100699.94;;;14.80;65.72
56042;BME280;48756;41.374;2.066;2022-12-07T13:02:08;100697.44;;;15.06;65.50
56042;BME280;48756;41.374;2.066;2022-12-07T13:10:04;100698.63;;;14.96;64.65
56042;BME280;48756;41.374;2.066;2022-12-07T13:12:46;100697.16;;;15.17;65.17
56042;BME280;48756;41.374;2.066;2022-12-07T13:15:41;100694.53;;;15.17;64.15
56042;BME280;48756;41.374;2.066;2022-12-07T13:20:51;100689.94;;;15.23;63.53
56042;BME280;48756;41.374;2.066;2022-12-07T13:23:21;100700.69;;;15.45;63.54
56042;BME280;48756;41.374;2.066;2022-12-07T13:28:46;100689.56;;;15.36;63.72
56042;BME280;48756;41.374;2.066;2022-12-07T13:33:55;100683.28;;;15.12;63.74
56042;BME280;48756;41.374;2.066;2022-12-07T13:36:24;100679.06;;;15.36;63.08
56042;BME280;48756;41.374;2.066;2022-12-07T13:38:54;100689.94;;;15.53;62.20
56042;BME280;48756;41.374;2.066;2022-12-07T13:41:24;100690.31;;;15.41;62.11
56042;BME280;48756;41.374;2.066;2022-12-07T13:44:00;100685.50;;;15.25;63.42
56042;BME280;48756;41.374;2.066;2022-12-07T13:46:41;100677.16;;;15.42;62.94
56042;BME280;48756;41.374;2.066;2022-12-07T13:52:19;100665.09;;;15.35;62.57
56042;BME280;48756;41.374;2.066;2022-12-07T13:54:48;100672.78;;;15.12;63.54
56042;BME280;48756;41.374;2.066;2022-12-07T13:57:15;100677.31;;;15.07;64.08
56042;BME280;48756;41.374;2.066;2022-12-07T13:59:40;100667.72;;;15.35;62.59
56042;BME280;48756;41.374;2.066;2022-12-07T14:02:19;100668.47;;;15.39;63.24
56042;BME280;48756;41.374;2.066;2022-12-07T14:04:45;100668.06;;;15.52;62.51
56042;BME280;48756;41.374;2.066;2022-12-07T14:07:24;100670.09;;;15.72;62.29
56042;BME280;48756;41.374;2.066;2022-12-07T14:09:54;100664.88;;;15.43;63.25
56042;BME280;48756;41.374;2.066;2022-12-07T14:12:19;100654.41;;;15.41;63.12
56042;BME280;48756;41.374;2.066;2022-12-07T14:14:46;100655.56;;;15.60;62.39
56042;BME280;48756;41.374;2.066;2022-12-07T14:17:16;100649.06;;;15.16;64.54
56042;BME280;48756;41.374;2.066;2022-12-07T14:19:52;100640.28;;;15.45;63.52
56042;BME280;48756;41.374;2.066;2022-12-07T14:22:22;100644.78;;;15.42;63.26
56042;BME280;48756;41.374;2.066;2022-12-07T14:24:47;100650.38;;;15.59;63.03
56042;BME280;48756;41.374;2.066;2022-12-07T14:27:20;100643.00;;;15.42;64.12
56042;BME280;48756;41.374;2.066;2022-12-07T14:29:45;100646.66;;;15.37;65.33
56042;BME280;48756;41.374;2.066;2022-12-07T14:32:19;100648.53;;;15.63;65.32
56042;BME280;48756;41.374;2.066;2022-12-07T14:37:19;100649.22;;;15.40;67.27
56042;BME280;48756;41.374;2.066;2022-12-07T14:39:45;100658.88;;;15.38;68.77
56042;BME280;48756;41.374;2.066;2022-12-07T14:42:10;100651.28;;;15.28;70.16
56042;BME280;48756;41.374;2.066;2022-12-07T14:44:36;100650.44;;;15.28;71.18
56042;BME280;48756;41.374;2.066;2022-12-07T14:47:01;100643.88;;;15.43;70.67